createdAt,value
2023-05-24T00:01:59.235Z,6.15
2023-05-24T00:06:58.340Z,5.83
2023-05-24T00:11:56.633Z,5.97
2023-05-24T00:16:55.236Z,6.22
2023-05-24T00:21:52.828Z,5.85
2023-05-24T00:26:53.375Z,5.53
2023-05-24T00:31:55.769Z,5.70
2023-05-24T00:36:54.744Z,5.85
2023-05-24T00:41:52.816Z,5.70
2023-05-24T00:47:20.082Z,5.90
2023-05-24T00:52:30.369Z,5.93
2023-05-24T00:57:28.044Z,5.35
2023-05-24T01:02:29.824Z,5.60
2023-05-24T01:07:40.972Z,5.03
2023-05-24T01:12:51.662Z,5.03
2023-05-24T01:17:51.494Z,5.53
2023-05-24T01:23:01.297Z,5.03
2023-05-24T01:28:00.017Z,5.35
2023-05-24T01:32:58.849Z,4.40
2023-05-24T01:37:56.865Z,5.18
2023-05-24T01:42:58.438Z,4.53
2023-05-24T01:48:15.393Z,4.75
2023-05-24T01:53:17.553Z,5.22
2023-05-24T01:58:18.378Z,4.93
2023-05-24T02:03:17.105Z,5.13
2023-05-24T02:08:18.478Z,5.05
2023-05-24T02:13:21.240Z,5.10
2023-05-24T02:18:21.400Z,5.88
2023-05-24T02:23:22.974Z,5.93
2023-05-24T02:28:21.030Z,5.57
2023-05-24T02:33:19.417Z,5.70
2023-05-24T02:38:21.287Z,5.28
2023-05-24T02:43:23.749Z,6.15
2023-05-24T02:48:24.848Z,5.70
2023-05-24T02:53:25.846Z,5.68
2023-05-24T02:58:52.322Z,5.53
2023-05-24T03:03:50.892Z,4.20
2023-05-24T03:08:50.412Z,5.53
2023-05-24T03:13:51.590Z,4.78
2023-05-24T03:18:53.805Z,4.93
2023-05-24T03:23:57.224Z,4.90
2023-05-24T03:28:58.214Z,4.50
2023-05-24T03:34:04.611Z,4.38
2023-05-24T03:39:06.340Z,4.50
2023-05-24T03:44:26.759Z,4.53
2023-05-24T03:49:26.347Z,5.00
2023-05-24T03:54:23.848Z,4.43
2023-05-24T03:59:30.566Z,4.50
2023-05-24T04:04:30.270Z,4.33
2023-05-24T04:09:35.208Z,4.90
2023-05-24T04:14:35.562Z,7.65
2023-05-24T04:19:34.535Z,5.75
2023-05-24T04:24:33.979Z,4.63
2023-05-24T04:29:36.300Z,4.38
2023-05-24T04:34:37.818Z,4.10
2023-05-24T04:39:39.063Z,5.55
2023-05-24T04:44:37.987Z,5.25
2023-05-24T04:49:47.276Z,5.93
2023-05-24T04:54:49.437Z,5.00
2023-05-24T04:59:49.443Z,5.28
2023-05-24T05:04:51.910Z,5.30
2023-05-24T05:09:57.210Z,5.60
2023-05-24T05:15:07.119Z,5.60
2023-05-24T05:20:08.723Z,5.60
2023-05-24T05:25:11.203Z,5.97
2023-05-24T05:30:10.679Z,6.25
2023-05-24T05:35:10.135Z,6.53
2023-05-24T05:40:09.353Z,5.80
2023-05-24T05:45:11.435Z,7.30
2023-05-24T05:50:14.276Z,5.97
2023-05-24T05:55:12.871Z,5.93
2023-05-24T06:00:24.568Z,6.53
2023-05-24T06:05:23.311Z,6.20
2023-05-24T06:10:26.442Z,6.57
2023-05-24T06:15:26.728Z,6.05
2023-05-24T06:20:45.344Z,6.25
2023-05-24T06:26:02.317Z,6.40
2023-05-24T06:31:13.650Z,6.15
2023-05-24T06:36:16.880Z,5.95
2023-05-24T06:47:10.671Z,5.88
2023-05-24T06:52:09.459Z,5.38
2023-05-24T06:57:10.702Z,5.88
2023-05-24T07:02:11.955Z,5.90
2023-05-24T07:07:24.953Z,5.00
2023-05-24T07:12:29.811Z,5.22
2023-05-24T07:17:27.453Z,4.60
2023-05-24T07:22:27.557Z,4.18
2023-05-24T07:27:58.777Z,4.80
2023-05-24T07:33:10.154Z,4.25
2023-05-24T07:38:12.030Z,4.35
2023-05-24T07:43:15.632Z,4.30
2023-05-24T07:53:14.010Z,3.22
2023-05-24T07:58:15.334Z,3.03
2023-05-24T08:03:15.290Z,3.42
2023-05-24T08:08:17.161Z,2.92
2023-05-24T08:13:14.593Z,2.83
2023-05-24T08:18:13.138Z,2.38
2023-05-24T08:23:15.286Z,2.88
2023-05-24T08:28:14.728Z,2.88
2023-05-24T08:33:14.740Z,3.40
2023-05-24T08:38:15.304Z,3.25
2023-05-24T08:43:14.081Z,2.85
2023-05-24T08:48:14.117Z,3.33
2023-05-24T08:53:15.992Z,4.45
2023-05-24T08:58:24.450Z,3.58
2023-05-24T09:03:26.111Z,3.50
2023-05-24T09:08:31.165Z,3.80
2023-05-24T09:13:32.302Z,3.63
2023-05-24T09:18:32.950Z,3.10
2023-05-24T09:23:33.670Z,2.80
2023-05-24T09:28:33.260Z,2.20
2023-05-24T09:33:33.805Z,2.75
2023-05-24T09:38:32.113Z,2.50
2023-05-24T09:43:32.117Z,2.50
2023-05-24T09:48:31.869Z,2.53
2023-05-24T09:53:29.922Z,2.20
2023-05-24T09:58:30.372Z,2.53
2023-05-24T10:03:30.330Z,2.60
2023-05-24T10:08:28.743Z,2.13
2023-05-24T10:13:27.781Z,2.25
2023-05-24T10:18:26.881Z,1.88
2023-05-24T10:23:27.167Z,2.58
2023-05-24T10:28:26.606Z,2.38
2023-05-24T10:33:26.830Z,2.97
2023-05-24T10:38:25.252Z,2.60
2023-05-24T10:43:25.367Z,2.38
2023-05-24T10:48:30.536Z,2.70
2023-05-24T10:53:29.722Z,2.45
2023-05-24T10:59:03.002Z,2.13
2023-05-24T11:04:07.556Z,2.42
2023-05-24T11:09:10.780Z,2.55
2023-05-24T11:14:09.811Z,2.42
2023-05-24T11:19:22.303Z,2.80
2023-05-24T11:24:26.672Z,2.65
2023-05-24T11:29:26.431Z,2.13
2023-05-24T11:34:25.052Z,2.50
2023-05-24T11:39:25.837Z,2.45
2023-05-24T11:44:24.354Z,2.42
2023-05-24T11:49:22.604Z,2.28
2023-05-24T11:54:26.129Z,2.75
2023-05-24T11:59:43.496Z,2.85
2023-05-24T12:04:51.350Z,2.47
2023-05-24T12:09:50.881Z,2.75
2023-05-24T12:14:49.525Z,2.42
2023-05-24T12:19:50.362Z,2.35
2023-05-24T12:24:51.359Z,2.10
2023-05-24T12:29:51.006Z,2.40
2023-05-24T12:34:49.757Z,2.30
2023-05-24T12:39:47.980Z,2.40
2023-05-24T12:44:52.680Z,2.28
2023-05-24T12:49:53.070Z,2.60
2023-05-24T12:54:51.837Z,2.38
2023-05-24T12:59:53.168Z,2.55
2023-05-24T13:04:51.729Z,2.58
2023-05-24T13:09:50.859Z,2.55
2023-05-24T13:14:50.763Z,2.10
2023-05-24T13:24:53.062Z,1.98
2023-05-24T13:30:01.280Z,2.25
2023-05-24T13:35:08.195Z,2.30
2023-05-24T13:40:12.580Z,2.08
2023-05-24T13:45:11.215Z,1.95
2023-05-24T13:50:11.664Z,2.30
2023-05-24T13:55:11.014Z,1.85
2023-05-24T14:00:10.298Z,2.30
2023-05-24T14:05:24.961Z,2.20
2023-05-24T14:10:25.416Z,2.40
2023-05-24T14:15:23.036Z,1.90
2023-05-24T14:20:21.959Z,2.47
2023-05-24T14:25:20.202Z,2.03
2023-05-24T14:30:17.862Z,2.17
2023-05-24T14:35:16.213Z,2.40
2023-05-24T14:40:19.145Z,2.33
2023-05-24T14:45:19.478Z,2.40
2023-05-24T14:50:18.131Z,2.60
2023-05-24T14:55:17.520Z,2.65
2023-05-24T15:00:16.086Z,2.53
2023-05-24T15:05:17.721Z,2.05
2023-05-24T15:10:15.287Z,2.73
2023-05-24T15:15:13.831Z,2.38
2023-05-24T15:20:12.712Z,2.75
2023-05-24T15:25:11.610Z,2.70
2023-05-24T15:30:10.137Z,2.58
2023-05-24T15:35:09.798Z,2.80
2023-05-24T15:40:09.800Z,2.72
2023-05-24T15:45:09.763Z,2.50
2023-05-24T15:50:08.605Z,3.35
2023-05-24T15:55:11.021Z,2.63
2023-05-24T16:00:13.692Z,2.33
2023-05-24T16:05:13.293Z,3.33
2023-05-24T16:10:12.263Z,2.67
2023-05-24T16:15:12.019Z,2.25
2023-05-24T16:20:11.769Z,3.25
2023-05-24T16:25:10.215Z,2.85
2023-05-24T16:30:08.336Z,2.90
2023-05-24T16:35:07.752Z,2.00
2023-05-24T16:40:07.638Z,2.30
2023-05-24T16:50:30.909Z,2.13
2023-05-24T16:55:29.917Z,2.47
2023-05-24T17:00:30.909Z,2.60
2023-05-24T17:11:19.172Z,2.40
2023-05-24T17:21:44.033Z,2.35
2023-05-24T17:26:54.772Z,2.40
2023-05-24T17:31:55.430Z,2.50
2023-05-24T17:36:57.249Z,2.67
2023-05-24T17:41:56.160Z,3.63
2023-05-24T17:46:54.855Z,2.47
2023-05-24T17:51:54.290Z,2.70
2023-05-24T17:57:01.238Z,3.47
2023-05-24T18:01:59.568Z,2.45
2023-05-24T18:06:57.245Z,2.67
2023-05-24T18:11:56.369Z,2.85
2023-05-24T18:16:57.829Z,2.58
2023-05-24T18:21:59.261Z,2.80
2023-05-24T18:26:58.316Z,2.30
2023-05-24T18:31:59.902Z,2.85
2023-05-24T18:36:58.772Z,2.15
2023-05-24T18:41:57.286Z,2.60
2023-05-24T18:46:56.724Z,2.40
2023-05-24T18:51:55.215Z,2.85
2023-05-24T18:56:53.839Z,2.63
2023-05-24T19:01:55.798Z,2.70
2023-05-24T19:06:55.574Z,2.88
2023-05-24T19:11:56.499Z,3.22
2023-05-24T19:16:54.659Z,3.35
2023-05-24T19:21:53.140Z,2.60
2023-05-24T19:26:51.749Z,2.90
2023-05-24T19:31:51.224Z,3.15
2023-05-24T19:36:49.575Z,2.83
2023-05-24T19:41:48.597Z,2.88
2023-05-24T19:46:46.165Z,3.00
2023-05-24T19:51:44.656Z,2.92
2023-05-24T19:56:42.116Z,2.90
2023-05-24T20:01:40.308Z,2.85
2023-05-24T20:06:39.404Z,2.60
2023-05-24T20:11:37.922Z,2.88
2023-05-24T20:16:48.572Z,2.80
2023-05-24T20:21:48.376Z,3.65
2023-05-24T20:26:47.048Z,2.97
2023-05-24T20:31:47.430Z,3.13
2023-05-24T20:36:47.884Z,2.80
2023-05-24T20:42:12.605Z,2.60
2023-05-24T20:47:09.968Z,3.22
2023-05-24T20:52:17.468Z,3.03
2023-05-24T20:57:16.588Z,2.88
2023-05-24T21:02:15.251Z,2.97
2023-05-24T21:07:13.740Z,2.97
2023-05-24T21:12:11.328Z,2.63
2023-05-24T21:17:09.379Z,2.63
2023-05-24T21:22:07.910Z,3.08
2023-05-24T21:27:06.356Z,2.95
2023-05-24T21:32:05.465Z,2.90
2023-05-24T21:37:05.190Z,2.63
2023-05-24T21:42:02.654Z,3.05
2023-05-24T21:47:01.975Z,2.80
2023-05-24T21:52:02.387Z,2.20
2023-05-24T21:57:02.144Z,3.08
2023-05-24T22:02:02.249Z,2.88
2023-05-24T22:07:03.856Z,2.88
2023-05-24T22:12:02.880Z,2.90
2023-05-24T22:17:02.818Z,3.00
2023-05-24T22:22:06.660Z,3.15
2023-05-24T22:27:06.090Z,3.67
2023-05-24T22:32:03.688Z,3.38
2023-05-24T22:37:01.494Z,3.15
2023-05-24T22:42:04.323Z,3.22
2023-05-24T22:47:04.712Z,3.10
2023-05-24T22:52:05.339Z,3.50
2023-05-24T22:57:03.583Z,3.58
2023-05-24T23:02:02.725Z,3.28
2023-05-24T23:07:02.905Z,2.75
2023-05-24T23:12:02.386Z,3.00
2023-05-24T23:17:05.154Z,2.65
2023-05-24T23:22:03.663Z,3.97
2023-05-24T23:27:02.693Z,3.08
2023-05-24T23:32:01.666Z,3.65
2023-05-24T23:37:03.044Z,3.55
2023-05-24T23:42:02.728Z,3.20
2023-05-24T23:47:02.177Z,3.42
2023-05-24T23:52:02.879Z,3.55
2023-05-24T23:57:00.185Z,3.10
